createdAt,value
2023-04-12T00:02:04.761Z,95245.53
2023-04-12T00:04:34.525Z,95239.44
2023-04-12T00:07:02.830Z,95240.75
2023-04-12T00:09:30.461Z,95226.00
2023-04-12T00:11:58.447Z,95242.19
2023-04-12T00:14:25.925Z,95251.22
2023-04-12T00:16:52.956Z,95253.97
2023-04-12T00:19:19.982Z,95255.53
2023-04-12T00:21:47.030Z,95244.22
2023-04-12T00:24:14.057Z,95253.06
2023-04-12T00:26:41.154Z,95259.75
2023-04-12T00:29:08.208Z,95260.88
2023-04-12T00:31:35.420Z,95266.69
2023-04-12T00:34:03.151Z,95270.84
2023-04-12T00:36:30.696Z,95262.34
2023-04-12T00:38:57.807Z,95283.38
2023-04-12T00:41:26.321Z,95289.09
2023-04-12T00:43:53.410Z,95300.19
2023-04-12T00:46:20.825Z,95299.28
2023-04-12T00:48:48.305Z,95277.16
2023-04-12T00:51:18.155Z,95285.94
2023-04-12T00:53:46.266Z,95282.22
2023-04-12T00:56:13.542Z,95275.22
2023-04-12T00:58:40.624Z,95284.47
2023-04-12T01:01:07.834Z,95292.53
2023-04-12T01:03:35.104Z,95282.69
2023-04-12T01:06:21.242Z,95285.34
2023-04-12T01:08:55.822Z,95280.22
2023-04-12T01:11:23.353Z,95283.28
2023-04-12T01:14:08.011Z,95296.63
2023-04-12T01:16:42.139Z,95303.81
2023-04-12T01:19:19.598Z,95294.25
2023-04-12T01:22:00.951Z,95303.25
2023-04-12T01:24:46.974Z,95305.19
2023-04-12T01:27:29.866Z,95302.09
2023-04-12T01:29:58.137Z,95318.56
2023-04-12T01:32:26.893Z,95324.41
2023-04-12T01:34:55.812Z,95326.59
2023-04-12T01:37:23.089Z,95331.44
2023-04-12T01:39:50.485Z,95331.19
2023-04-12T01:42:21.397Z,95332.50
2023-04-12T01:44:49.017Z,95333.47
2023-04-12T01:47:16.320Z,95330.16
2023-04-12T01:50:02.255Z,95347.69
2023-04-12T01:52:31.091Z,95348.66
2023-04-12T01:55:02.522Z,95359.06
2023-04-12T01:57:33.094Z,95364.16
2023-04-12T02:00:02.268Z,95359.94
2023-04-12T02:02:30.489Z,95354.06
2023-04-12T02:05:00.256Z,95365.50
2023-04-12T02:07:27.870Z,95366.06
2023-04-12T02:09:54.918Z,95366.88
2023-04-12T02:12:22.736Z,95366.06
2023-04-12T02:14:52.098Z,95363.88
2023-04-12T02:17:20.073Z,95371.19
2023-04-12T02:19:47.577Z,95371.47
2023-04-12T02:22:16.732Z,95394.31
2023-04-12T02:24:43.775Z,95393.13
2023-04-12T02:27:11.784Z,95377.63
2023-04-12T02:29:38.782Z,95378.66
2023-04-12T02:32:06.346Z,95404.06
2023-04-12T02:34:36.493Z,95419.16
2023-04-12T02:37:17.739Z,95428.84
2023-04-12T02:39:44.913Z,95451.16
2023-04-12T02:42:12.274Z,95499.19
2023-04-12T02:44:41.166Z,95526.09
2023-04-12T02:47:12.154Z,95546.06
2023-04-12T02:49:41.079Z,95583.13
2023-04-12T02:52:08.976Z,95598.63
2023-04-12T02:57:38.065Z,95646.34
2023-04-12T03:00:11.886Z,95672.09
2023-04-12T03:02:42.824Z,95697.06
2023-04-12T03:05:17.603Z,95730.13
2023-04-12T03:07:45.045Z,95760.19
2023-04-12T03:10:12.797Z,95790.22
2023-04-12T03:12:55.317Z,95829.03
2023-04-12T03:15:23.550Z,95847.09
2023-04-12T03:17:52.793Z,95876.31
2023-04-12T03:20:25.967Z,95909.25
2023-04-12T03:23:01.624Z,95933.16
2023-04-12T03:25:30.485Z,95963.00
2023-04-12T03:28:17.585Z,95987.66
2023-04-12T03:30:50.656Z,96006.47
2023-04-12T03:33:20.954Z,96033.88
2023-04-12T03:35:48.895Z,96047.72
2023-04-12T03:38:16.262Z,96069.81
2023-04-12T03:40:43.965Z,96076.31
2023-04-12T03:43:11.272Z,96093.44
2023-04-12T03:45:38.377Z,96091.47
2023-04-12T03:48:06.863Z,96110.50
2023-04-12T03:50:44.786Z,96113.16
2023-04-12T03:53:18.553Z,96148.31
2023-04-12T03:55:47.148Z,96168.34
2023-04-12T03:58:16.274Z,96190.78
2023-04-12T04:00:46.681Z,96206.97
2023-04-12T04:03:15.149Z,96234.16
2023-04-12T04:05:47.787Z,96256.03
2023-04-12T04:08:17.140Z,96289.56
2023-04-12T04:10:50.810Z,96301.25
2023-04-12T04:13:18.693Z,96317.41
2023-04-12T04:15:46.353Z,96346.44
2023-04-12T04:18:13.550Z,96375.25
2023-04-12T04:20:40.636Z,96393.88
2023-04-12T04:23:10.304Z,96425.56
2023-04-12T04:25:40.028Z,96448.47
2023-04-12T04:28:09.794Z,96476.06
2023-04-12T04:30:39.077Z,96498.34
2023-04-12T04:33:09.181Z,96534.78
2023-04-12T04:35:39.290Z,96566.50
2023-04-12T04:38:32.574Z,96585.50
2023-04-12T04:41:09.196Z,96613.75
2023-04-12T04:43:56.724Z,96640.34
2023-04-12T04:46:30.470Z,96671.44
2023-04-12T04:48:58.731Z,96698.03
2023-04-12T04:51:25.872Z,96716.88
2023-04-12T04:53:55.529Z,96737.13
2023-04-12T04:56:23.352Z,96761.28
2023-04-12T04:58:52.928Z,96789.31
2023-04-12T05:01:25.819Z,96827.97
2023-04-12T05:03:55.696Z,96854.38
2023-04-12T05:06:24.006Z,96890.63
2023-04-12T05:08:52.552Z,96922.34
2023-04-12T05:11:20.291Z,96953.44
2023-04-12T05:13:47.967Z,96991.53
2023-04-12T05:16:15.629Z,97031.00
2023-04-12T05:18:42.756Z,97071.16
2023-04-12T05:21:09.899Z,97113.09
2023-04-12T05:23:37.932Z,97147.91
2023-04-12T05:26:05.465Z,97179.03
2023-04-12T05:28:32.833Z,97211.59
2023-04-12T05:31:00.033Z,97258.28
2023-04-12T05:33:34.644Z,97289.81
2023-04-12T05:36:02.652Z,97322.38
2023-04-12T05:38:31.340Z,97352.09
2023-04-12T05:41:04.711Z,97381.19
2023-04-12T05:43:33.522Z,97402.91
2023-04-12T05:46:00.652Z,97426.88
2023-04-12T05:48:28.446Z,97436.72
2023-04-12T05:50:57.784Z,97462.31
2023-04-12T05:53:24.898Z,97496.16
2023-04-12T05:55:52.023Z,97528.16
2023-04-12T05:58:20.131Z,97547.81
2023-04-12T06:00:50.039Z,97574.88
2023-04-12T06:03:17.328Z,97598.44
2023-04-12T06:05:44.630Z,97624.91
2023-04-12T06:08:12.927Z,97639.69
2023-04-12T06:10:42.447Z,97639.94
2023-04-12T06:13:09.678Z,97649.50
2023-04-12T06:15:41.416Z,97664.03
2023-04-12T06:18:08.992Z,97676.91
2023-04-12T06:20:38.824Z,97684.31
2023-04-12T06:23:06.596Z,97704.22
2023-04-12T06:25:34.368Z,97731.50
2023-04-12T06:28:01.708Z,97742.97
2023-04-12T06:30:29.065Z,97750.41
2023-04-12T06:32:57.206Z,97746.28
2023-04-12T06:35:24.463Z,97766.38
2023-04-12T06:37:51.888Z,97768.03
2023-04-12T06:40:19.032Z,97781.63
2023-04-12T06:42:46.148Z,97797.97
2023-04-12T06:45:13.198Z,97795.13
2023-04-12T06:47:40.518Z,97805.63
2023-04-12T06:50:07.825Z,97807.88
2023-04-12T06:52:35.040Z,97812.84
2023-04-12T06:55:02.196Z,97819.56
2023-04-12T06:57:29.307Z,97822.22
2023-04-12T06:59:56.584Z,97843.41
2023-04-12T07:02:23.704Z,97846.47
2023-04-12T07:04:54.537Z,97856.09
2023-04-12T07:07:21.766Z,97865.50
2023-04-12T07:09:48.972Z,97868.22
2023-04-12T07:12:16.275Z,97882.38
2023-04-12T07:14:44.768Z,97878.44
2023-04-12T07:17:12.025Z,97899.84
2023-04-12T07:19:39.621Z,97904.97
2023-04-12T07:22:06.738Z,97915.84
2023-04-12T07:24:33.907Z,97929.88
2023-04-12T07:27:01.308Z,97947.50
2023-04-12T07:29:28.479Z,97951.56
2023-04-12T07:31:55.657Z,97989.78
2023-04-12T07:34:24.029Z,97992.09
2023-04-12T07:36:51.403Z,98009.72
2023-04-12T07:39:18.519Z,98022.97
2023-04-12T07:41:46.430Z,98034.28
2023-04-12T07:44:13.733Z,98048.25
2023-04-12T07:46:41.892Z,98054.69
2023-04-12T07:49:10.589Z,98083.94
2023-04-12T07:51:37.705Z,98102.88
2023-04-12T07:54:05.524Z,98120.78
2023-04-12T07:56:33.860Z,98144.88
2023-04-12T07:59:01.198Z,98157.22
2023-04-12T08:01:28.480Z,98165.78
2023-04-12T08:03:56.072Z,98172.03
2023-04-12T08:06:23.499Z,98185.63
2023-04-12T08:08:50.683Z,98212.78
2023-04-12T08:11:17.792Z,98224.38
2023-04-12T08:13:44.980Z,98239.19
2023-04-12T08:16:13.267Z,98251.00
2023-04-12T08:18:40.417Z,98255.19
2023-04-12T08:21:07.594Z,98274.19
2023-04-12T08:23:34.631Z,98299.41
2023-04-12T08:26:04.711Z,98294.41
2023-04-12T08:28:32.580Z,98309.34
2023-04-12T08:30:59.815Z,98316.25
2023-04-12T08:33:27.260Z,98333.66
2023-04-12T08:35:55.224Z,98332.00
2023-04-12T08:38:30.727Z,98352.50
2023-04-12T08:41:07.850Z,98353.22
2023-04-12T08:43:35.010Z,98353.13
2023-04-12T08:46:02.247Z,98353.59
2023-04-12T08:48:29.445Z,98359.75
2023-04-12T08:50:57.762Z,98356.91
2023-04-12T08:53:25.012Z,98357.19
2023-04-12T08:55:52.203Z,98383.09
2023-04-12T08:58:20.763Z,98378.09
2023-04-12T09:00:48.015Z,98375.44
2023-04-12T09:03:15.697Z,98384.75
2023-04-12T09:05:42.892Z,98412.94
2023-04-12T09:08:10.063Z,98408.63
2023-04-12T09:10:38.120Z,98401.22
2023-04-12T09:13:05.889Z,98413.22
2023-04-12T09:15:33.996Z,98426.75
2023-04-12T09:18:05.301Z,98438.72
2023-04-12T09:20:32.383Z,98434.22
2023-04-12T09:22:59.576Z,98464.84
2023-04-12T09:25:36.903Z,98469.19
2023-04-12T09:28:04.586Z,98450.19
2023-04-12T09:30:40.739Z,98446.97
2023-04-12T09:33:11.755Z,98445.13
2023-04-12T09:35:39.395Z,98434.03
2023-04-12T09:38:10.052Z,98467.88
2023-04-12T09:40:37.429Z,98457.19
2023-04-12T09:43:04.968Z,98470.66
2023-04-12T09:45:34.387Z,98477.47
2023-04-12T09:48:01.458Z,98461.53
2023-04-12T09:50:29.542Z,98476.16
2023-04-12T09:52:57.458Z,98521.75
2023-04-12T09:55:29.643Z,98516.94
2023-04-12T09:57:56.979Z,98509.09
2023-04-12T10:00:26.720Z,98500.53
2023-04-12T10:02:55.316Z,98531.13
2023-04-12T10:05:25.593Z,98533.44
2023-04-12T10:07:54.800Z,98526.31
2023-04-12T10:10:22.495Z,98524.09
2023-04-12T10:12:50.246Z,98538.78
2023-04-12T10:15:18.298Z,98517.06
2023-04-12T10:17:47.851Z,98528.34
2023-04-12T10:20:15.853Z,98539.88
2023-04-12T10:22:45.565Z,98557.59
2023-04-12T10:25:17.521Z,98574.00
2023-04-12T10:27:45.071Z,98584.06
2023-04-12T10:30:28.708Z,98589.81
2023-04-12T10:33:02.106Z,98588.72
2023-04-12T10:35:29.793Z,98594.41
2023-04-12T10:38:04.333Z,98611.75
2023-04-12T10:40:32.545Z,98634.22
2023-04-12T10:43:18.185Z,98639.06
2023-04-12T10:45:46.058Z,98660.31
2023-04-12T10:48:32.203Z,98681.72
2023-04-12T10:51:25.820Z,98673.78
2023-04-12T10:54:14.646Z,98657.97
2023-04-12T10:56:42.601Z,98646.63
2023-04-12T10:59:14.932Z,98680.66
2023-04-12T11:02:03.388Z,98690.25
2023-04-12T11:04:30.875Z,98686.94
2023-04-12T11:07:20.961Z,98682.59
2023-04-12T11:10:12.246Z,98677.59
2023-04-12T11:12:39.349Z,98714.91
2023-04-12T11:15:06.865Z,98723.31
2023-04-12T11:17:54.931Z,98754.63
2023-04-12T11:20:22.391Z,98790.09
2023-04-12T11:22:51.542Z,98818.53
2023-04-12T11:25:18.890Z,98831.56
2023-04-12T11:27:50.334Z,98834.13
2023-04-12T11:30:17.782Z,98848.78
2023-04-12T11:32:45.548Z,98855.03
2023-04-12T11:35:14.433Z,98880.06
2023-04-12T11:37:41.627Z,98889.47
2023-04-12T11:40:09.353Z,98902.34
2023-04-12T11:42:39.341Z,98920.53
2023-04-12T11:45:14.216Z,98911.00
2023-04-12T11:47:44.475Z,98914.94
2023-04-12T11:50:12.003Z,98964.91
2023-04-12T11:52:41.082Z,98989.66
2023-04-12T11:55:11.030Z,99267.38
2023-04-12T11:57:38.807Z,99276.75
2023-04-12T12:00:06.882Z,99274.41
2023-04-12T12:02:48.878Z,99282.44
2023-04-12T12:05:24.054Z,99286.25
2023-04-12T12:07:52.761Z,99303.53
2023-04-12T12:10:37.854Z,99332.13
2023-04-12T12:13:11.441Z,99327.56
2023-04-12T12:15:38.670Z,99349.34
2023-04-12T12:18:09.523Z,99384.34
2023-04-12T12:20:40.490Z,99407.25
2023-04-12T12:23:07.742Z,99441.56
2023-04-12T12:25:34.761Z,99412.91
2023-04-12T12:28:05.373Z,99412.13
2023-04-12T12:30:39.878Z,99414.59
2023-04-12T12:33:07.241Z,99418.28
2023-04-12T12:35:34.600Z,99427.00
2023-04-12T12:38:06.719Z,99424.66
2023-04-12T12:40:33.837Z,99422.81
2023-04-12T12:43:01.139Z,99456.78
2023-04-12T12:45:29.328Z,99483.97
2023-04-12T12:47:59.736Z,99499.69
2023-04-12T12:50:27.977Z,99556.50
2023-04-12T12:52:55.671Z,99576.78
2023-04-12T12:55:23.758Z,99567.22
2023-04-12T12:58:06.628Z,99562.38
2023-04-12T13:00:35.345Z,99572.56
2023-04-12T13:03:03.191Z,99591.50
2023-04-12T13:05:30.904Z,99593.88
2023-04-12T13:07:58.103Z,99597.38
2023-04-12T13:10:27.065Z,99587.50
2023-04-12T13:12:54.135Z,99589.66
2023-04-12T13:15:23.852Z,99597.69
2023-04-12T13:17:52.007Z,99592.16
2023-04-12T13:20:19.173Z,99549.75
2023-04-12T13:22:46.265Z,99577.53
2023-04-12T13:25:13.412Z,99558.75
2023-04-12T13:27:40.562Z,99546.16
2023-04-12T13:30:08.434Z,99533.41
2023-04-12T13:32:35.982Z,99542.97
2023-04-12T13:35:03.485Z,99555.03
2023-04-12T13:37:31.077Z,99564.22
2023-04-12T13:39:58.186Z,99534.75
2023-04-12T13:42:25.473Z,99536.06
2023-04-12T13:44:52.646Z,99521.63
2023-04-12T13:47:19.773Z,99530.00
2023-04-12T13:49:46.873Z,99541.00
2023-04-12T13:52:14.136Z,99548.69
2023-04-12T13:54:43.045Z,99551.16
2023-04-12T13:57:10.196Z,99536.91
2023-04-12T13:59:37.451Z,99523.69
2023-04-12T14:02:04.612Z,99519.19
2023-04-12T14:04:31.997Z,99523.84
2023-04-12T14:06:59.181Z,99533.06
2023-04-12T14:09:29.984Z,99531.16
2023-04-12T14:11:58.132Z,99507.56
2023-04-12T14:14:26.174Z,99505.22
2023-04-12T14:16:54.827Z,99514.78
2023-04-12T14:19:22.023Z,99514.06
2023-04-12T14:21:49.443Z,99498.50
2023-04-12T14:24:16.993Z,99518.28
2023-04-12T14:26:46.673Z,99511.56
2023-04-12T14:29:14.099Z,99532.53
2023-04-12T14:31:41.259Z,99544.78
2023-04-12T14:34:08.963Z,99525.19
2023-04-12T14:36:36.334Z,99535.28
2023-04-12T14:39:04.126Z,99534.59
2023-04-12T14:41:31.642Z,99529.56
2023-04-12T14:43:59.770Z,99551.34
2023-04-12T14:46:29.444Z,99564.75
2023-04-12T14:48:57.361Z,99559.72
2023-04-12T14:51:24.585Z,99570.78
2023-04-12T14:53:51.817Z,99547.03
2023-04-12T14:56:22.352Z,99558.09
2023-04-12T14:58:53.682Z,99542.81
2023-04-12T15:01:21.239Z,99547.56
2023-04-12T15:03:50.832Z,99567.34
2023-04-12T15:06:18.603Z,99554.06
2023-04-12T15:08:45.801Z,99559.75
2023-04-12T15:11:15.119Z,99562.56
2023-04-12T15:13:44.263Z,99550.00
2023-04-12T15:16:15.006Z,99554.38
2023-04-12T15:18:42.264Z,99554.22
2023-04-12T15:21:10.437Z,99565.41
2023-04-12T15:23:38.961Z,99567.09
2023-04-12T15:26:09.357Z,99573.13
2023-04-12T15:28:36.604Z,99552.88
2023-04-12T15:31:04.554Z,99564.81
2023-04-12T15:33:34.463Z,99565.13
2023-04-12T15:36:02.242Z,99565.78
2023-04-12T15:38:29.947Z,99585.25
2023-04-12T15:40:58.969Z,99595.63
2023-04-12T15:43:26.541Z,99594.34
2023-04-12T15:45:54.701Z,99601.03
2023-04-12T15:48:23.167Z,99616.31
2023-04-12T15:50:51.452Z,99638.78
2023-04-12T15:53:20.578Z,99420.84
2023-04-12T15:55:47.774Z,99415.94
2023-04-12T15:58:14.820Z,99433.84
2023-04-12T16:00:42.443Z,99408.53
2023-04-12T16:03:09.923Z,99413.56
2023-04-12T16:05:37.143Z,99402.44
2023-04-12T16:08:04.299Z,99382.69
2023-04-12T16:10:32.079Z,99390.50
2023-04-12T16:12:59.510Z,99375.88
2023-04-12T16:15:26.697Z,99371.53
2023-04-12T16:17:54.569Z,99381.53
2023-04-12T16:20:22.254Z,99360.22
2023-04-12T16:22:50.331Z,99364.88
2023-04-12T16:25:17.434Z,99357.34
2023-04-12T16:27:45.027Z,99355.34
2023-04-12T16:30:13.592Z,99356.44
2023-04-12T16:32:41.097Z,99352.25
2023-04-12T16:35:08.501Z,99361.00
2023-04-12T16:37:37.592Z,99357.28
2023-04-12T16:40:08.001Z,99348.94
2023-04-12T16:42:35.408Z,99356.81
2023-04-12T16:47:27.717Z,99732.19
2023-04-12T16:49:54.964Z,99775.34
2023-04-12T16:52:22.180Z,99786.63
2023-04-12T16:54:49.216Z,99770.34
2023-04-12T16:57:17.291Z,99750.19
2023-04-12T16:59:44.951Z,99728.38
2023-04-12T17:02:12.639Z,99711.41
2023-04-12T17:04:39.875Z,99695.81
2023-04-12T17:07:07.040Z,99680.31
2023-04-12T17:09:34.121Z,99657.81
2023-04-12T17:12:01.368Z,99643.22
2023-04-12T17:14:29.609Z,99622.56
2023-04-12T17:16:57.359Z,99607.31
2023-04-12T17:19:24.454Z,99588.53
2023-04-12T17:21:51.563Z,99578.47
2023-04-12T17:24:18.780Z,99554.34
2023-04-12T17:26:46.683Z,99552.00
2023-04-12T17:29:14.587Z,99533.38
2023-04-12T17:31:42.717Z,99529.19
2023-04-12T17:34:09.820Z,99520.63
2023-04-12T17:36:38.229Z,99518.97
2023-04-12T17:39:05.404Z,99500.34
2023-04-12T17:41:32.636Z,99504.03
2023-04-12T17:44:00.323Z,99509.59
2023-04-12T17:46:27.445Z,99536.56
2023-04-12T17:48:54.625Z,99560.97
2023-04-12T17:52:17.327Z,99769.56
2023-04-12T17:54:44.843Z,99757.53
2023-04-12T17:57:12.229Z,99768.97
2023-04-12T17:59:39.430Z,99739.59
2023-04-12T18:02:07.081Z,99746.31
2023-04-12T18:04:34.537Z,99696.47
2023-04-12T18:07:01.694Z,99650.53
2023-04-12T18:09:28.789Z,99604.59
2023-04-12T18:11:56.590Z,99553.84
2023-04-12T18:14:23.766Z,99512.44
2023-04-12T18:16:50.947Z,99477.91
2023-04-12T18:19:19.134Z,99476.06
2023-04-12T18:21:49.362Z,99451.78
2023-04-12T18:24:16.968Z,99444.06
2023-04-12T18:26:45.129Z,99434.88
2023-04-12T18:29:14.431Z,99435.03
2023-04-12T18:31:41.821Z,99420.28
2023-04-12T18:34:08.958Z,99407.06
2023-04-12T18:36:39.503Z,99400.03
2023-04-12T18:39:07.994Z,99377.75
2023-04-12T18:41:36.609Z,99390.47
2023-04-12T18:44:04.146Z,99384.47
2023-04-12T18:46:31.349Z,99373.06
2023-04-12T18:48:58.688Z,99369.38
2023-04-12T18:51:26.403Z,99371.72
2023-04-12T18:53:53.621Z,99365.72
2023-04-12T18:56:24.441Z,99376.25
2023-04-12T18:58:55.724Z,99369.56
2023-04-12T19:01:25.002Z,99368.72
2023-04-12T19:03:52.867Z,99370.72
2023-04-12T19:06:20.026Z,99348.13
2023-04-12T19:08:48.360Z,99344.63
2023-04-12T19:11:16.717Z,99359.03
2023-04-12T19:13:43.997Z,99353.66
2023-04-12T19:16:11.460Z,99341.63
2023-04-12T19:18:38.641Z,99338.78
2023-04-12T19:21:06.601Z,99340.63
2023-04-12T19:23:33.861Z,99335.44
2023-04-12T19:26:00.987Z,99335.94
2023-04-12T19:28:28.337Z,99323.19
2023-04-12T19:30:57.551Z,99313.19
2023-04-12T19:33:24.983Z,99306.50
2023-04-12T19:35:52.292Z,99298.94
2023-04-12T19:38:21.218Z,99281.41
2023-04-12T19:40:50.850Z,99281.41
2023-04-12T19:43:21.022Z,99257.63
2023-04-12T19:45:48.357Z,99233.84
2023-04-12T19:48:17.012Z,99230.69
2023-04-12T19:50:46.262Z,99228.88
2023-04-12T19:53:17.829Z,99228.88
2023-04-12T19:55:45.134Z,99215.16
2023-04-12T19:58:13.557Z,99208.13
2023-04-12T20:00:41.342Z,99212.81
2023-04-12T20:03:09.789Z,99203.09
2023-04-12T20:05:37.655Z,99192.22
2023-04-12T20:08:04.841Z,99188.72
2023-04-12T20:10:32.172Z,99167.31
2023-04-12T20:12:59.352Z,99174.66
2023-04-12T20:15:26.526Z,99178.00
2023-04-12T20:17:53.974Z,99169.97
2023-04-12T20:20:21.135Z,99174.34
2023-04-12T20:22:51.875Z,99173.50
2023-04-12T20:25:20.460Z,99169.53
2023-04-12T20:27:52.416Z,99173.38
2023-04-12T20:30:20.973Z,99167.50
2023-04-12T20:32:54.467Z,99170.69
2023-04-12T20:35:21.880Z,99154.47
2023-04-12T20:37:51.006Z,99172.03
2023-04-12T20:40:18.629Z,99160.66
2023-04-12T20:42:46.004Z,99163.50
2023-04-12T20:45:14.015Z,99168.88
2023-04-12T20:47:41.571Z,99162.19
2023-04-12T20:50:08.887Z,99146.78
2023-04-12T20:52:36.441Z,99150.47
2023-04-12T20:55:04.771Z,99146.78
2023-04-12T20:57:31.873Z,99137.78
2023-04-12T20:59:59.568Z,99141.28
2023-04-12T21:02:27.461Z,99133.78
2023-04-12T21:04:54.646Z,99138.31
2023-04-12T21:07:25.893Z,99127.59
2023-04-12T21:09:53.066Z,99120.09
2023-04-12T21:12:20.213Z,99131.28
2023-04-12T21:14:50.320Z,99126.59
2023-04-12T21:17:22.310Z,99121.56
2023-04-12T21:19:50.269Z,99124.59
2023-04-12T21:22:17.404Z,99121.94
2023-04-12T21:24:44.594Z,99123.56
2023-04-12T21:27:12.143Z,99119.25
2023-04-12T21:29:41.498Z,99115.25
2023-04-12T21:32:09.321Z,99111.56
2023-04-12T21:34:37.367Z,99116.59
2023-04-12T21:37:05.395Z,99106.56
2023-04-12T21:39:32.950Z,99116.09
2023-04-12T21:42:00.143Z,99110.25
2023-04-12T21:44:27.375Z,99098.22
2023-04-12T21:46:54.686Z,99102.91
2023-04-12T21:49:21.753Z,99111.56
2023-04-12T21:51:49.248Z,99109.75
2023-04-12T21:54:16.794Z,99110.09
2023-04-12T21:56:43.942Z,99116.59
2023-04-12T21:59:11.246Z,99111.59
2023-04-12T22:01:38.548Z,99123.31
2023-04-12T22:04:05.959Z,99138.69
2023-04-12T22:06:33.140Z,99139.50
2023-04-12T22:09:01.917Z,99145.84
2023-04-12T22:11:29.881Z,99148.19
2023-04-12T22:13:57.723Z,99152.03
2023-04-12T22:16:25.008Z,99153.38
2023-04-12T22:18:52.886Z,99161.56
2023-04-12T22:21:20.681Z,99161.06
2023-04-12T22:23:48.290Z,99165.72
2023-04-12T22:26:15.423Z,99170.59
2023-04-12T22:28:44.404Z,99174.94
2023-04-12T22:31:14.371Z,99189.63
2023-04-12T22:33:47.342Z,99200.16
2023-04-12T22:36:14.459Z,99184.44
2023-04-12T22:38:41.839Z,99203.81
2023-04-12T22:41:09.009Z,99209.34
2023-04-12T22:43:41.882Z,99203.16
2023-04-12T22:46:15.829Z,99195.13
2023-04-12T22:48:47.713Z,99194.81
2023-04-12T22:51:15.176Z,99189.78
2023-04-12T22:53:43.557Z,99192.97
2023-04-12T22:56:11.325Z,99195.78
2023-04-12T22:58:40.201Z,99198.97
2023-04-12T23:01:07.550Z,99212.19
2023-04-12T23:03:35.044Z,99214.66
2023-04-12T23:06:02.164Z,99226.84
2023-04-12T23:08:29.414Z,99228.69
2023-04-12T23:11:02.726Z,99238.38
2023-04-12T23:13:29.833Z,99236.22
2023-04-12T23:15:57.711Z,99237.91
2023-04-12T23:18:25.753Z,99245.34
2023-04-12T23:20:53.986Z,99209.38
2023-04-12T23:23:22.534Z,99211.72
2023-04-12T23:25:49.624Z,99182.13
2023-04-12T23:28:19.327Z,99192.22
2023-04-12T23:30:47.884Z,99190.19
2023-04-12T23:33:18.251Z,99200.06
2023-04-12T23:35:46.255Z,99187.88
2023-04-12T23:38:22.924Z,99183.75
2023-04-12T23:40:56.285Z,99162.84
2023-04-12T23:43:24.370Z,99165.22
2023-04-12T23:45:52.134Z,99154.19
2023-04-12T23:48:19.343Z,99146.47
2023-04-12T23:50:46.675Z,99132.41
2023-04-12T23:53:14.192Z,99134.28
2023-04-12T23:55:41.965Z,99142.28
2023-04-12T23:58:09.472Z,99127.22
